createdAt,value
2023-01-30T00:04:24.809Z,1.15
2023-01-30T00:09:27.256Z,0.87
2023-01-30T00:14:29.962Z,0.74
2023-01-30T00:19:32.604Z,-0.11
2023-01-30T00:24:35.127Z,-0.20
2023-01-30T00:29:37.587Z,-0.31
2023-01-30T00:34:40.197Z,-0.24
2023-01-30T00:39:44.055Z,-0.27
2023-01-30T00:45:05.387Z,-0.25
2023-01-30T00:50:08.672Z,-0.15
2023-01-30T00:55:11.585Z,0.65
2023-01-30T01:00:14.598Z,1.42
2023-01-30T01:05:17.337Z,2.05
2023-01-30T01:10:20.448Z,2.71
2023-01-30T01:15:24.684Z,3.37
2023-01-30T01:20:27.144Z,2.61
2023-01-30T01:25:30.041Z,2.51
2023-01-30T01:30:32.806Z,1.78
2023-01-30T01:35:35.229Z,0.51
2023-01-30T01:40:56.280Z,0.79
2023-01-30T01:46:18.256Z,0.31
2023-01-30T01:51:37.203Z,1.10
2023-01-30T01:56:43.959Z,1.82
2023-01-30T02:01:47.763Z,0.86
2023-01-30T02:06:50.384Z,1.58
2023-01-30T02:11:59.436Z,2.00
2023-01-30T02:17:02.224Z,2.49
2023-01-30T02:22:33.015Z,1.22
2023-01-30T02:27:59.645Z,1.52
2023-01-30T02:33:13.231Z,2.11
2023-01-30T02:38:30.933Z,1.89
2023-01-30T02:43:46.135Z,1.32
2023-01-30T02:48:59.299Z,-0.16
2023-01-30T02:54:02.366Z,-0.41
2023-01-30T02:59:08.649Z,-0.62
2023-01-30T03:04:32.441Z,-0.89
2023-01-30T03:10:14.896Z,-0.84
2023-01-30T03:15:36.405Z,-0.86
2023-01-30T03:20:41.124Z,-1.10
2023-01-30T03:25:46.180Z,-1.18
2023-01-30T03:30:49.166Z,-1.05
2023-01-30T03:35:52.637Z,-1.19
2023-01-30T03:40:55.144Z,-1.15
2023-01-30T03:45:57.925Z,-1.06
2023-01-30T03:51:00.603Z,-1.01
2023-01-30T03:56:03.205Z,-0.95
2023-01-30T04:01:08.298Z,-0.79
2023-01-30T04:06:11.092Z,-0.68
2023-01-30T04:11:13.564Z,-0.65
2023-01-30T04:16:18.653Z,-0.49
2023-01-30T04:21:50.115Z,-0.29
2023-01-30T04:26:52.637Z,-0.10
2023-01-30T04:31:55.206Z,0.12
2023-01-30T04:37:01.652Z,0.30
2023-01-30T04:42:05.217Z,0.39
2023-01-30T04:47:15.128Z,0.37
2023-01-30T04:52:17.645Z,0.37
2023-01-30T04:57:20.049Z,0.43
2023-01-30T05:02:23.781Z,0.44
2023-01-30T05:07:26.568Z,0.44
2023-01-30T05:12:29.209Z,0.53
2023-01-30T05:17:32.569Z,0.54
2023-01-30T05:22:35.137Z,0.52
2023-01-30T05:27:37.728Z,0.50
2023-01-30T05:32:40.187Z,0.35
2023-01-30T05:37:42.681Z,0.43
2023-01-30T05:42:45.236Z,0.37
2023-01-30T05:47:54.835Z,0.37
2023-01-30T05:52:58.979Z,0.36
2023-01-30T05:58:01.690Z,0.40
2023-01-30T06:03:04.276Z,0.43
2023-01-30T06:08:08.126Z,0.43
2023-01-30T06:13:11.270Z,0.41
2023-01-30T06:18:13.945Z,0.52
2023-01-30T06:23:16.849Z,0.43
2023-01-30T06:28:20.218Z,0.41
2023-01-30T06:33:22.705Z,0.59
2023-01-30T06:38:26.164Z,0.67
2023-01-30T06:43:28.739Z,0.59
2023-01-30T06:48:31.293Z,0.65
2023-01-30T06:53:33.981Z,0.68
2023-01-30T06:58:36.603Z,0.76
2023-01-30T07:03:42.358Z,0.95
2023-01-30T07:08:44.724Z,1.15
2023-01-30T07:13:47.417Z,0.98
2023-01-30T07:18:49.837Z,1.16
2023-01-30T07:23:52.793Z,1.34
2023-01-30T07:28:55.194Z,1.33
2023-01-30T07:33:57.629Z,1.36
2023-01-30T07:39:01.879Z,1.65
2023-01-30T07:44:04.492Z,2.11
2023-01-30T07:49:09.141Z,2.01
2023-01-30T07:54:11.790Z,2.00
2023-01-30T07:59:14.240Z,2.18
2023-01-30T08:04:16.764Z,2.40
2023-01-30T08:09:19.190Z,2.47
2023-01-30T08:14:21.987Z,2.29
2023-01-30T08:19:24.703Z,2.66
2023-01-30T08:24:27.439Z,2.68
2023-01-30T08:29:29.943Z,2.59
2023-01-30T08:34:32.948Z,2.78
2023-01-30T08:39:38.304Z,2.22
2023-01-30T08:44:40.915Z,2.20
2023-01-30T08:49:43.353Z,2.35
2023-01-30T08:54:45.873Z,2.53
2023-01-30T08:59:51.313Z,2.62
2023-01-30T09:04:53.888Z,2.63
2023-01-30T09:09:56.353Z,2.67
2023-01-30T09:15:00.671Z,3.73
2023-01-30T09:20:03.925Z,3.62
2023-01-30T09:25:07.061Z,3.71
2023-01-30T09:30:10.312Z,3.68
2023-01-30T09:35:12.831Z,3.45
2023-01-30T09:40:18.903Z,3.35
2023-01-30T09:45:49.366Z,3.47
2023-01-30T09:51:21.371Z,3.52
2023-01-30T09:56:24.197Z,3.38
2023-01-30T10:01:46.253Z,3.34
2023-01-30T10:07:10.377Z,3.48
2023-01-30T10:12:44.118Z,3.69
2023-01-30T10:18:13.467Z,3.82
2023-01-30T10:23:26.675Z,3.90
2023-01-30T10:28:38.685Z,4.04
2023-01-30T10:33:55.493Z,4.08
2023-01-30T10:39:01.644Z,4.15
2023-01-30T10:44:13.231Z,4.19
2023-01-30T10:50:11.114Z,4.48
2023-01-30T10:55:38.071Z,4.18
2023-01-30T11:00:51.116Z,4.40
2023-01-30T11:05:59.874Z,4.29
2023-01-30T11:11:21.784Z,4.43
2023-01-30T11:16:24.603Z,4.50
2023-01-30T11:21:42.333Z,4.31
2023-01-30T11:26:48.372Z,4.07
2023-01-30T11:31:52.319Z,4.11
2023-01-30T11:37:12.037Z,3.90
2023-01-30T11:42:14.569Z,3.74
2023-01-30T11:47:26.031Z,3.42
2023-01-30T11:52:35.125Z,3.29
2023-01-30T11:57:50.913Z,3.48
2023-01-30T12:02:56.737Z,3.24
2023-01-30T12:08:24.721Z,3.35
2023-01-30T12:13:47.295Z,3.12
2023-01-30T12:19:04.885Z,3.02
2023-01-30T12:24:13.500Z,3.02
2023-01-30T12:29:36.120Z,3.20
2023-01-30T12:34:38.775Z,3.26
2023-01-30T12:40:10.471Z,3.34
2023-01-30T12:45:21.516Z,3.27
2023-01-30T12:50:42.423Z,3.12
2023-01-30T12:55:59.432Z,3.12
2023-01-30T13:01:25.328Z,3.32
2023-01-30T13:06:39.812Z,3.48
2023-01-30T13:11:42.170Z,3.64
2023-01-30T13:17:14.682Z,3.44
2023-01-30T13:22:28.114Z,3.50
2023-01-30T13:27:35.818Z,3.71
2023-01-30T13:32:43.474Z,3.72
2023-01-30T13:37:49.047Z,4.02
2023-01-30T13:42:57.621Z,4.14
2023-01-30T13:48:15.147Z,4.40
2023-01-30T13:53:33.146Z,4.59
2023-01-30T13:58:44.596Z,4.66
2023-01-30T14:03:47.219Z,5.13
2023-01-30T14:08:55.103Z,5.38
2023-01-30T14:14:15.426Z,5.68
2023-01-30T14:19:33.347Z,5.19
2023-01-30T14:24:35.908Z,4.99
2023-01-30T14:29:38.229Z,5.08
2023-01-30T14:34:40.683Z,5.08
2023-01-30T14:39:53.480Z,4.66
2023-01-30T14:45:00.367Z,4.87
2023-01-30T14:50:03.327Z,4.76
2023-01-30T14:55:15.654Z,5.23
2023-01-30T15:00:21.076Z,4.63
2023-01-30T15:05:42.313Z,4.85
2023-01-30T15:10:54.135Z,4.91
2023-01-30T15:16:23.719Z,5.14
2023-01-30T15:21:56.931Z,5.34
2023-01-30T15:27:36.797Z,4.74
2023-01-30T15:32:39.406Z,4.97
2023-01-30T15:37:48.266Z,4.76
2023-01-30T15:43:02.869Z,4.54
2023-01-30T15:48:14.823Z,4.83
2023-01-30T15:53:17.970Z,4.83
2023-01-30T15:58:22.768Z,4.58
2023-01-30T16:03:32.193Z,4.59
2023-01-30T16:08:37.072Z,4.38
2023-01-30T16:13:39.843Z,4.36
2023-01-30T16:19:04.681Z,4.31
2023-01-30T16:24:27.912Z,4.11
2023-01-30T16:29:33.724Z,4.21
2023-01-30T16:34:39.913Z,4.09
2023-01-30T16:39:42.560Z,4.12
2023-01-30T16:44:45.057Z,4.04
2023-01-30T16:49:49.524Z,4.17
2023-01-30T16:55:02.638Z,4.38
2023-01-30T17:00:20.119Z,4.71
2023-01-30T17:05:34.348Z,4.35
2023-01-30T17:10:55.673Z,4.36
2023-01-30T17:16:16.759Z,4.33
2023-01-30T17:21:20.886Z,4.19
2023-01-30T17:26:23.860Z,3.99
2023-01-30T17:31:27.191Z,3.97
2023-01-30T17:36:31.105Z,4.10
2023-01-30T17:41:36.947Z,4.05
2023-01-30T17:46:41.221Z,4.17
2023-01-30T17:51:44.561Z,4.13
2023-01-30T17:56:50.347Z,4.15
2023-01-30T18:01:53.525Z,3.98
2023-01-30T18:07:09.697Z,3.96
2023-01-30T18:12:12.342Z,3.98
2023-01-30T18:17:14.861Z,3.97
2023-01-30T18:22:17.379Z,4.01
2023-01-30T18:27:19.893Z,4.01
2023-01-30T18:32:22.338Z,4.22
2023-01-30T18:37:25.495Z,4.23
2023-01-30T18:42:28.047Z,4.38
2023-01-30T18:47:30.751Z,4.68
2023-01-30T18:52:33.539Z,4.74
2023-01-30T18:57:36.166Z,5.12
2023-01-30T19:02:38.769Z,4.86
2023-01-30T19:07:41.404Z,4.90
2023-01-30T19:13:17.694Z,4.69
2023-01-30T19:18:20.419Z,4.62
2023-01-30T19:23:31.015Z,4.47
2023-01-30T19:28:33.699Z,4.45
2023-01-30T19:33:36.804Z,4.46
2023-01-30T19:38:40.269Z,4.70
2023-01-30T19:43:43.175Z,4.94
2023-01-30T19:48:47.271Z,4.68
2023-01-30T19:53:54.285Z,4.50
2023-01-30T19:58:58.764Z,4.37
2023-01-30T20:04:02.714Z,4.81
2023-01-30T20:09:09.693Z,4.83
2023-01-30T20:14:12.541Z,4.89
2023-01-30T20:19:16.969Z,4.89
2023-01-30T20:24:19.571Z,4.72
2023-01-30T20:29:22.020Z,4.62
2023-01-30T20:34:25.041Z,4.81
2023-01-30T20:39:27.595Z,4.75
2023-01-30T20:44:30.161Z,4.60
2023-01-30T20:49:33.113Z,4.73
2023-01-30T20:54:35.902Z,4.71
2023-01-30T20:59:38.917Z,4.86
2023-01-30T21:04:41.586Z,4.76
2023-01-30T21:09:44.125Z,4.88
2023-01-30T21:14:46.740Z,4.66
2023-01-30T21:19:49.191Z,4.55
2023-01-30T21:24:51.720Z,4.47
2023-01-30T21:29:54.281Z,4.50
2023-01-30T21:34:56.730Z,4.48
2023-01-30T21:40:17.826Z,4.58
2023-01-30T21:45:21.202Z,4.41
2023-01-30T21:50:24.088Z,4.26
2023-01-30T21:55:26.504Z,4.46
2023-01-30T22:00:28.984Z,4.47
2023-01-30T22:05:36.508Z,4.42
2023-01-30T22:10:39.282Z,4.28
2023-01-30T22:15:41.756Z,4.22
2023-01-30T22:20:44.407Z,4.18
2023-01-30T22:25:54.651Z,4.15
2023-01-30T22:31:08.566Z,4.13
2023-01-30T22:36:11.358Z,3.98
2023-01-30T22:41:18.469Z,3.91
2023-01-30T22:46:22.341Z,3.91
2023-01-30T22:51:37.085Z,4.15
2023-01-30T22:56:45.066Z,4.18
2023-01-30T23:01:50.778Z,4.07
2023-01-30T23:06:53.231Z,4.15
2023-01-30T23:12:15.770Z,3.98
2023-01-30T23:17:36.981Z,3.95
2023-01-30T23:22:39.455Z,4.05
2023-01-30T23:27:41.899Z,4.07
2023-01-30T23:32:44.304Z,3.93
2023-01-30T23:38:05.021Z,3.95
2023-01-30T23:43:07.646Z,3.89
2023-01-30T23:48:10.381Z,3.96
2023-01-30T23:53:12.774Z,4.05
2023-01-30T23:58:15.251Z,4.08
